createdAt,value
2023-02-25T00:02:26.693Z,4.57
2023-02-25T00:04:53.550Z,3.50
2023-02-25T00:07:20.060Z,4.30
2023-02-25T00:09:46.535Z,3.88
2023-02-25T00:12:13.002Z,3.92
2023-02-25T00:14:40.640Z,4.10
2023-02-25T00:17:07.152Z,5.22
2023-02-25T00:19:33.675Z,5.05
2023-02-25T00:22:00.652Z,3.65
2023-02-25T00:24:27.505Z,3.88
2023-02-25T00:26:54.205Z,3.00
2023-02-25T00:29:20.636Z,4.00
2023-02-25T00:31:47.308Z,3.88
2023-02-25T00:34:13.915Z,4.88
2023-02-25T00:36:40.390Z,3.88
2023-02-25T00:39:07.316Z,3.08
2023-02-25T00:41:33.801Z,2.17
2023-02-25T00:44:01.702Z,2.28
2023-02-25T00:46:30.029Z,1.40
2023-02-25T00:48:57.537Z,1.75
2023-02-25T00:51:26.884Z,1.67
2023-02-25T00:53:56.618Z,2.05
2023-02-25T00:56:24.858Z,1.52
2023-02-25T00:58:52.175Z,2.05
2023-02-25T01:01:38.190Z,1.85
2023-02-25T01:04:05.916Z,1.52
2023-02-25T01:06:33.669Z,1.73
2023-02-25T01:09:00.747Z,1.80
2023-02-25T01:11:33.713Z,2.00
2023-02-25T01:14:03.613Z,1.48
2023-02-25T01:16:32.158Z,1.63
2023-02-25T01:19:04.831Z,2.30
2023-02-25T01:21:35.203Z,2.08
2023-02-25T01:24:14.573Z,2.53
2023-02-25T01:26:43.235Z,2.47
2023-02-25T01:29:12.564Z,2.10
2023-02-25T01:31:39.468Z,2.30
2023-02-25T01:34:08.717Z,3.22
2023-02-25T01:36:35.340Z,3.00
2023-02-25T01:39:03.549Z,2.83
2023-02-25T01:41:31.848Z,3.47
2023-02-25T01:44:09.328Z,3.88
2023-02-25T01:46:37.537Z,2.80
2023-02-25T01:49:11.154Z,3.58
2023-02-25T01:51:38.457Z,2.83
2023-02-25T01:54:08.087Z,3.17
2023-02-25T01:56:38.578Z,2.97
2023-02-25T01:59:05.557Z,3.40
2023-02-25T02:01:35.395Z,2.53
2023-02-25T02:04:06.876Z,2.92
2023-02-25T02:10:14.382Z,2.40
2023-02-25T02:12:45.329Z,2.33
2023-02-25T02:15:14.256Z,2.20
2023-02-25T02:17:56.389Z,2.03
2023-02-25T02:20:28.104Z,1.83
2023-02-25T02:23:14.824Z,2.03
2023-02-25T02:26:00.129Z,2.38
2023-02-25T02:28:32.720Z,1.85
2023-02-25T02:31:19.527Z,1.95
2023-02-25T02:33:54.942Z,2.00
2023-02-25T02:36:36.001Z,1.67
2023-02-25T02:39:11.285Z,1.90
2023-02-25T02:41:46.267Z,1.80
2023-02-25T02:44:29.585Z,1.52
2023-02-25T02:47:23.245Z,2.00
2023-02-25T02:49:55.581Z,1.88
2023-02-25T02:52:29.099Z,1.48
2023-02-25T02:55:03.752Z,1.70
2023-02-25T02:57:32.763Z,1.60
2023-02-25T03:00:13.304Z,1.70
2023-02-25T03:02:43.835Z,1.90
2023-02-25T03:05:17.145Z,1.80
2023-02-25T03:07:53.401Z,1.85
2023-02-25T03:10:22.782Z,1.70
2023-02-25T03:12:49.662Z,1.80
2023-02-25T03:15:16.360Z,1.73
2023-02-25T03:17:48.913Z,1.55
2023-02-25T03:20:41.924Z,1.65
2023-02-25T03:23:13.908Z,1.48
2023-02-25T03:25:47.448Z,2.08
2023-02-25T03:28:31.933Z,1.60
2023-02-25T03:31:06.539Z,1.40
2023-02-25T03:33:40.054Z,1.17
2023-02-25T03:36:19.920Z,1.38
2023-02-25T03:38:51.254Z,1.10
2023-02-25T03:41:21.303Z,1.02
2023-02-25T03:43:55.749Z,1.25
2023-02-25T03:46:23.407Z,1.30
2023-02-25T03:48:52.375Z,1.20
2023-02-25T03:51:23.581Z,1.10
2023-02-25T03:53:50.256Z,1.00
2023-02-25T03:56:16.800Z,1.20
2023-02-25T03:58:44.269Z,1.13
2023-02-25T04:01:17.136Z,0.80
2023-02-25T04:03:44.078Z,1.10
2023-02-25T04:06:12.804Z,1.20
2023-02-25T04:08:39.928Z,0.77
2023-02-25T04:11:06.393Z,0.90
2023-02-25T04:13:32.866Z,1.05
2023-02-25T04:15:59.766Z,1.10
2023-02-25T04:18:26.576Z,1.23
2023-02-25T04:20:53.431Z,0.95
2023-02-25T04:23:19.995Z,1.23
2023-02-25T04:25:46.535Z,1.15
2023-02-25T04:28:12.992Z,1.10
2023-02-25T04:30:39.599Z,1.40
2023-02-25T04:33:06.078Z,0.77
2023-02-25T04:35:32.888Z,1.00
2023-02-25T04:37:59.399Z,1.00
2023-02-25T04:40:25.988Z,0.90
2023-02-25T04:42:52.543Z,1.05
2023-02-25T04:45:19.324Z,1.05
2023-02-25T04:47:46.029Z,1.00
2023-02-25T04:50:12.983Z,1.08
2023-02-25T04:52:39.531Z,1.02
2023-02-25T04:55:06.627Z,0.95
2023-02-25T04:57:33.089Z,0.80
2023-02-25T04:59:59.760Z,1.10
2023-02-25T05:02:26.212Z,1.13
2023-02-25T05:04:52.731Z,1.17
2023-02-25T05:07:19.198Z,1.08
2023-02-25T05:09:45.719Z,0.90
2023-02-25T05:12:12.163Z,0.95
2023-02-25T05:14:38.732Z,0.88
2023-02-25T05:17:05.356Z,1.00
2023-02-25T05:19:31.863Z,1.13
2023-02-25T05:21:58.340Z,1.10
2023-02-25T05:24:24.841Z,0.90
2023-02-25T05:26:51.713Z,0.93
2023-02-25T05:29:18.827Z,1.02
2023-02-25T05:31:45.508Z,1.00
2023-02-25T05:34:12.259Z,0.80
2023-02-25T05:36:38.795Z,1.95
2023-02-25T05:39:06.552Z,1.33
2023-02-25T05:41:33.041Z,0.95
2023-02-25T05:43:59.649Z,1.33
2023-02-25T05:46:26.839Z,1.27
2023-02-25T05:48:54.533Z,1.23
2023-02-25T05:51:23.535Z,1.27
2023-02-25T05:53:51.687Z,1.20
2023-02-25T05:56:22.938Z,1.20
2023-02-25T05:58:49.995Z,1.60
2023-02-25T06:01:22.881Z,1.17
2023-02-25T06:03:58.351Z,1.15
2023-02-25T06:06:27.747Z,1.35
2023-02-25T06:08:54.282Z,1.42
2023-02-25T06:11:23.847Z,1.17
2023-02-25T06:13:51.934Z,1.70
2023-02-25T06:16:19.417Z,1.30
2023-02-25T06:18:47.358Z,1.20
2023-02-25T06:21:15.067Z,1.30
2023-02-25T06:23:43.243Z,1.13
2023-02-25T06:26:12.425Z,1.40
2023-02-25T06:28:39.544Z,1.13
2023-02-25T06:31:11.055Z,1.00
2023-02-25T06:36:05.409Z,1.13
2023-02-25T06:38:33.213Z,1.15
2023-02-25T06:40:59.863Z,2.15
2023-02-25T06:43:26.667Z,1.85
2023-02-25T06:45:53.156Z,2.78
2023-02-25T06:48:19.633Z,1.10
2023-02-25T06:50:46.112Z,1.30
2023-02-25T06:53:12.543Z,1.10
2023-02-25T06:55:39.930Z,1.13
2023-02-25T06:58:06.961Z,1.13
2023-02-25T07:00:33.526Z,1.70
2023-02-25T07:03:02.955Z,1.70
2023-02-25T07:05:29.553Z,1.25
2023-02-25T07:07:56.240Z,1.23
2023-02-25T07:10:22.763Z,1.45
2023-02-25T07:12:49.348Z,0.95
2023-02-25T07:15:15.798Z,1.05
2023-02-25T07:17:42.242Z,1.42
2023-02-25T07:20:09.519Z,1.13
2023-02-25T07:22:36.379Z,1.10
2023-02-25T07:25:03.477Z,1.10
2023-02-25T07:27:29.993Z,1.10
2023-02-25T07:29:56.448Z,1.40
2023-02-25T07:32:25.377Z,1.15
2023-02-25T07:34:52.073Z,1.10
2023-02-25T07:37:18.644Z,1.00
2023-02-25T07:39:47.573Z,1.05
2023-02-25T07:42:14.173Z,0.80
2023-02-25T07:44:40.919Z,1.10
2023-02-25T07:47:07.490Z,1.02
2023-02-25T07:49:33.942Z,0.90
2023-02-25T07:52:00.815Z,0.80
2023-02-25T07:54:27.253Z,0.93
2023-02-25T07:56:53.679Z,1.25
2023-02-25T07:59:20.279Z,0.75
2023-02-25T08:01:46.920Z,0.70
2023-02-25T08:04:13.575Z,2.65
2023-02-25T08:06:41.097Z,0.90
2023-02-25T08:09:12.196Z,0.90
2023-02-25T08:11:39.580Z,1.05
2023-02-25T08:14:06.677Z,0.90
2023-02-25T08:16:33.718Z,0.90
2023-02-25T08:19:00.319Z,0.77
2023-02-25T08:21:27.188Z,0.70
2023-02-25T08:23:54.289Z,0.50
2023-02-25T08:26:22.615Z,0.68
2023-02-25T08:28:50.703Z,1.58
2023-02-25T08:31:18.048Z,1.55
2023-02-25T08:33:49.427Z,0.50
2023-02-25T08:36:21.694Z,0.65
2023-02-25T08:38:49.866Z,1.50
2023-02-25T08:41:17.433Z,0.70
2023-02-25T08:43:44.416Z,1.40
2023-02-25T08:46:11.131Z,0.90
2023-02-25T08:48:38.088Z,0.73
2023-02-25T08:51:09.457Z,1.25
2023-02-25T08:53:38.824Z,0.63
2023-02-25T08:56:06.425Z,0.57
2023-02-25T08:58:33.245Z,0.65
2023-02-25T09:01:00.050Z,0.98
2023-02-25T09:03:26.997Z,0.57
2023-02-25T09:05:56.762Z,0.73
2023-02-25T09:08:23.994Z,0.75
2023-02-25T09:10:51.154Z,0.80
2023-02-25T09:13:17.827Z,0.70
2023-02-25T09:15:44.448Z,0.70
2023-02-25T09:18:13.403Z,0.60
2023-02-25T09:20:39.851Z,0.50
2023-02-25T09:23:06.594Z,0.73
2023-02-25T09:25:33.017Z,1.85
2023-02-25T09:27:59.509Z,0.57
2023-02-25T09:30:26.940Z,0.40
2023-02-25T09:32:53.575Z,1.65
2023-02-25T09:35:20.459Z,1.00
2023-02-25T09:37:46.989Z,0.40
2023-02-25T09:40:18.796Z,0.60
2023-02-25T09:43:03.622Z,0.88
2023-02-25T09:45:33.088Z,0.50
2023-02-25T09:48:03.262Z,0.47
2023-02-25T09:50:41.780Z,0.40
2023-02-25T09:53:18.660Z,0.63
2023-02-25T09:55:51.207Z,0.50
2023-02-25T09:58:26.665Z,0.50
2023-02-25T10:01:14.246Z,0.52
2023-02-25T10:03:48.525Z,0.60
2023-02-25T10:06:27.653Z,0.60
2023-02-25T10:08:57.184Z,0.90
2023-02-25T10:11:37.992Z,0.50
2023-02-25T10:14:29.340Z,0.30
2023-02-25T10:17:18.756Z,0.43
2023-02-25T10:20:29.204Z,0.60
2023-02-25T10:23:14.640Z,0.60
2023-02-25T10:25:56.008Z,0.50
2023-02-25T10:28:23.952Z,0.50
2023-02-25T10:30:59.238Z,0.50
2023-02-25T10:33:28.660Z,0.50
2023-02-25T10:36:03.246Z,0.68
2023-02-25T10:38:30.009Z,0.50
2023-02-25T10:40:58.065Z,0.50
2023-02-25T10:43:26.343Z,0.35
2023-02-25T10:46:03.140Z,0.52
2023-02-25T10:48:30.093Z,0.57
2023-02-25T10:51:12.315Z,0.43
2023-02-25T10:53:40.809Z,0.82
2023-02-25T10:56:09.742Z,0.68
2023-02-25T10:58:40.713Z,1.00
2023-02-25T11:01:10.367Z,0.70
2023-02-25T11:03:44.450Z,0.60
2023-02-25T11:06:17.840Z,0.60
2023-02-25T11:08:44.882Z,0.65
2023-02-25T11:11:26.634Z,0.50
2023-02-25T11:13:59.880Z,0.40
2023-02-25T11:16:27.537Z,0.55
2023-02-25T11:18:58.641Z,0.50
2023-02-25T11:21:37.415Z,0.60
2023-02-25T11:24:31.336Z,0.52
2023-02-25T11:26:58.461Z,0.57
2023-02-25T11:29:33.406Z,0.50
2023-02-25T11:32:15.156Z,0.50
2023-02-25T11:34:52.114Z,0.85
2023-02-25T11:37:39.731Z,0.50
2023-02-25T11:40:23.512Z,0.55
2023-02-25T11:45:35.465Z,0.50
2023-02-25T11:48:18.300Z,0.70
2023-02-25T11:50:53.988Z,0.63
2023-02-25T11:53:20.441Z,0.70
2023-02-25T11:56:30.743Z,0.40
2023-02-25T11:59:13.917Z,0.63
2023-02-25T12:01:58.772Z,0.60
2023-02-25T12:04:56.921Z,0.40
2023-02-25T12:07:35.577Z,0.30
2023-02-25T12:10:20.870Z,0.50
2023-02-25T12:12:50.270Z,0.38
2023-02-25T12:15:23.947Z,0.70
2023-02-25T12:18:05.664Z,0.50
2023-02-25T12:20:58.810Z,0.50
2023-02-25T12:23:27.979Z,0.50
2023-02-25T12:26:06.858Z,0.50
2023-02-25T12:28:45.648Z,0.73
2023-02-25T12:31:37.013Z,0.40
2023-02-25T12:34:25.156Z,0.65
2023-02-25T12:37:09.883Z,0.60
2023-02-25T12:40:03.356Z,0.60
2023-02-25T12:42:50.994Z,0.47
2023-02-25T12:45:51.310Z,0.52
2023-02-25T12:48:44.147Z,0.60
2023-02-25T12:51:48.124Z,0.30
2023-02-25T12:54:36.969Z,0.65
2023-02-25T12:57:22.154Z,0.70
2023-02-25T13:00:16.164Z,0.70
2023-02-25T13:03:04.718Z,0.60
2023-02-25T13:05:48.520Z,1.10
2023-02-25T13:08:30.039Z,0.80
2023-02-25T13:11:22.742Z,0.85
2023-02-25T13:14:01.308Z,0.43
2023-02-25T13:16:53.389Z,0.57
2023-02-25T13:19:22.745Z,0.40
2023-02-25T13:22:26.221Z,0.60
2023-02-25T13:25:25.477Z,1.10
2023-02-25T13:28:14.316Z,1.98
2023-02-25T13:30:47.131Z,1.08
2023-02-25T13:33:19.418Z,1.08
2023-02-25T13:36:10.447Z,0.80
2023-02-25T13:38:42.262Z,0.60
2023-02-25T13:41:18.857Z,0.77
2023-02-25T13:44:29.608Z,0.65
2023-02-25T13:47:17.425Z,1.45
2023-02-25T13:50:01.757Z,0.77
2023-02-25T13:52:30.350Z,0.90
2023-02-25T13:55:24.994Z,0.70
2023-02-25T13:58:15.143Z,1.05
2023-02-25T14:01:04.414Z,0.70
2023-02-25T14:04:12.998Z,0.75
2023-02-25T14:07:17.821Z,0.80
2023-02-25T14:09:59.270Z,0.52
2023-02-25T14:12:49.753Z,0.60
2023-02-25T14:15:22.822Z,0.80
2023-02-25T14:18:07.685Z,0.90
2023-02-25T14:20:39.361Z,0.75
2023-02-25T14:23:05.778Z,1.02
2023-02-25T14:25:54.251Z,0.93
2023-02-25T14:28:40.986Z,0.77
2023-02-25T14:31:20.092Z,1.00
2023-02-25T14:34:01.977Z,1.00
2023-02-25T14:36:34.261Z,1.02
2023-02-25T14:39:00.942Z,1.15
2023-02-25T14:41:56.240Z,1.30
2023-02-25T14:44:33.978Z,1.10
2023-02-25T14:47:07.998Z,1.40
2023-02-25T14:49:49.270Z,1.30
2023-02-25T14:52:47.927Z,1.30
2023-02-25T14:55:34.649Z,0.95
2023-02-25T14:58:39.742Z,1.13
2023-02-25T15:01:19.122Z,0.90
2023-02-25T15:03:54.459Z,0.70
2023-02-25T15:06:46.622Z,1.38
2023-02-25T15:09:47.094Z,1.45
2023-02-25T15:13:01.205Z,0.90
2023-02-25T15:15:58.058Z,0.88
2023-02-25T15:18:43.146Z,0.90
2023-02-25T15:21:34.682Z,0.70
2023-02-25T15:24:01.423Z,0.80
2023-02-25T15:26:48.542Z,1.10
2023-02-25T15:29:33.410Z,0.90
2023-02-25T15:32:30.814Z,0.80
2023-02-25T15:35:07.867Z,0.80
2023-02-25T15:38:03.035Z,0.88
2023-02-25T15:40:32.434Z,0.80
2023-02-25T15:43:00.340Z,0.77
2023-02-25T15:45:27.335Z,1.05
2023-02-25T15:48:12.476Z,1.52
2023-02-25T15:50:42.030Z,2.10
2023-02-25T15:53:24.699Z,2.40
2023-02-25T15:56:12.592Z,1.25
2023-02-25T15:58:53.561Z,1.40
2023-02-25T16:01:39.440Z,1.50
2023-02-25T16:04:44.788Z,0.80
2023-02-25T16:07:17.176Z,0.60
2023-02-25T16:09:49.582Z,0.90
2023-02-25T16:12:16.569Z,1.10
2023-02-25T16:14:44.605Z,0.90
2023-02-25T16:17:35.358Z,1.17
2023-02-25T16:20:21.108Z,0.57
2023-02-25T16:22:51.343Z,0.55
2023-02-25T16:25:28.134Z,0.90
2023-02-25T16:28:06.570Z,0.90
2023-02-25T16:30:47.570Z,0.85
2023-02-25T16:33:27.166Z,1.13
2023-02-25T16:36:06.793Z,1.45
2023-02-25T16:39:12.586Z,1.27
2023-02-25T16:41:39.644Z,1.10
2023-02-25T16:44:07.763Z,0.85
2023-02-25T16:46:37.603Z,1.17
2023-02-25T16:49:10.192Z,1.10
2023-02-25T16:51:43.183Z,1.20
2023-02-25T16:54:26.477Z,1.23
2023-02-25T16:56:58.005Z,1.13
2023-02-25T17:01:58.507Z,0.90
2023-02-25T17:04:30.641Z,0.95
2023-02-25T17:07:25.719Z,1.10
2023-02-25T17:10:01.833Z,1.05
2023-02-25T17:12:31.302Z,1.27
2023-02-25T17:15:00.699Z,1.25
2023-02-25T17:17:33.151Z,1.05
2023-02-25T17:20:04.509Z,1.10
2023-02-25T17:22:32.357Z,1.13
2023-02-25T17:25:00.176Z,1.13
2023-02-25T17:27:28.577Z,1.15
2023-02-25T17:29:55.511Z,0.93
2023-02-25T17:32:25.184Z,1.10
2023-02-25T17:34:54.861Z,0.85
2023-02-25T17:37:22.844Z,1.10
2023-02-25T17:39:50.188Z,1.00
2023-02-25T17:42:36.794Z,1.08
2023-02-25T17:45:08.446Z,1.58
2023-02-25T17:47:38.052Z,1.15
2023-02-25T17:50:23.708Z,0.95
2023-02-25T17:52:50.314Z,1.15
2023-02-25T17:55:30.052Z,0.90
2023-02-25T17:57:59.888Z,1.10
2023-02-25T18:00:31.877Z,1.27
2023-02-25T18:03:18.590Z,1.23
2023-02-25T18:06:31.535Z,2.00
2023-02-25T18:09:02.634Z,1.35
2023-02-25T18:11:37.716Z,1.90
2023-02-25T18:14:28.267Z,3.70
2023-02-25T18:16:55.610Z,2.17
2023-02-25T18:19:36.406Z,1.08
2023-02-25T18:22:04.111Z,1.38
2023-02-25T18:24:33.450Z,1.10
2023-02-25T18:27:20.882Z,1.50
2023-02-25T18:29:48.064Z,1.35
2023-02-25T18:32:14.632Z,1.40
2023-02-25T18:34:41.146Z,1.80
2023-02-25T18:37:13.421Z,1.65
2023-02-25T18:39:39.917Z,1.50
2023-02-25T18:42:06.357Z,1.92
2023-02-25T18:44:32.813Z,1.58
2023-02-25T18:46:59.227Z,0.95
2023-02-25T18:49:25.680Z,1.50
2023-02-25T18:51:52.610Z,1.33
2023-02-25T18:54:19.058Z,1.65
2023-02-25T18:56:45.542Z,1.70
2023-02-25T18:59:12.003Z,1.65
2023-02-25T19:01:38.841Z,1.42
2023-02-25T19:04:05.578Z,1.33
2023-02-25T19:06:34.007Z,1.33
2023-02-25T19:09:00.839Z,1.70
2023-02-25T19:11:31.409Z,1.50
2023-02-25T19:13:57.900Z,1.43
2023-02-25T19:16:25.143Z,1.50
2023-02-25T19:18:51.797Z,1.20
2023-02-25T19:21:20.815Z,1.40
2023-02-25T19:23:51.220Z,1.25
2023-02-25T19:29:00.616Z,1.90
2023-02-25T19:31:27.090Z,1.33
2023-02-25T19:33:53.537Z,1.17
2023-02-25T19:36:20.006Z,1.30
2023-02-25T19:38:46.476Z,1.17
2023-02-25T19:41:14.319Z,1.75
2023-02-25T19:43:40.838Z,1.45
2023-02-25T19:46:08.480Z,1.20
2023-02-25T19:48:35.105Z,1.50
2023-02-25T19:51:06.467Z,0.80
2023-02-25T19:53:34.129Z,0.90
2023-02-25T19:56:02.911Z,0.98
2023-02-25T19:58:31.967Z,0.93
2023-02-25T20:01:06.577Z,1.20
2023-02-25T20:03:33.394Z,1.00
2023-02-25T20:06:22.289Z,1.00
2023-02-25T20:08:53.660Z,1.10
2023-02-25T20:11:20.245Z,0.93
2023-02-25T20:13:46.837Z,1.25
2023-02-25T20:16:13.435Z,1.33
2023-02-25T20:18:39.895Z,0.95
2023-02-25T20:21:06.865Z,1.10
2023-02-25T20:23:33.342Z,1.02
2023-02-25T20:26:09.260Z,0.90
2023-02-25T20:28:36.278Z,0.95
2023-02-25T20:31:14.723Z,1.23
2023-02-25T20:33:41.818Z,1.20
2023-02-25T20:36:31.378Z,1.27
2023-02-25T20:39:22.771Z,1.02
2023-02-25T20:41:49.375Z,1.02
2023-02-25T20:44:16.694Z,1.30
2023-02-25T20:46:43.625Z,1.20
2023-02-25T20:49:15.972Z,1.45
2023-02-25T20:51:44.775Z,1.30
2023-02-25T20:54:12.614Z,1.20
2023-02-25T20:56:40.253Z,1.00
2023-02-25T20:59:07.160Z,1.08
2023-02-25T21:01:33.701Z,1.20
2023-02-25T21:04:00.264Z,1.35
2023-02-25T21:11:49.977Z,1.35
2023-02-25T21:14:16.531Z,1.20
2023-02-25T21:16:43.116Z,1.40
2023-02-25T21:19:09.722Z,1.42
2023-02-25T21:21:39.613Z,1.65
2023-02-25T21:24:08.628Z,1.30
2023-02-25T21:29:17.043Z,1.10
2023-02-25T21:31:44.053Z,1.30
2023-02-25T21:34:12.858Z,1.48
2023-02-25T21:36:41.080Z,1.45
2023-02-25T21:39:12.439Z,1.35
2023-02-25T21:41:44.433Z,1.20
2023-02-25T21:44:12.197Z,1.38
2023-02-25T21:46:38.697Z,1.20
2023-02-25T21:54:28.934Z,1.08
2023-02-25T21:56:55.491Z,1.75
2023-02-25T21:59:23.244Z,1.80
2023-02-25T22:01:49.798Z,2.17
2023-02-25T22:04:16.720Z,1.88
2023-02-25T22:06:43.346Z,1.40
2023-02-25T22:09:09.875Z,2.60
2023-02-25T22:11:38.176Z,1.60
2023-02-25T22:14:06.603Z,1.73
2023-02-25T22:16:33.365Z,1.20
2023-02-25T22:19:00.516Z,1.48
2023-02-25T22:21:29.154Z,1.13
2023-02-25T22:23:57.880Z,1.60
2023-02-25T22:26:27.674Z,1.50
2023-02-25T22:28:59.719Z,1.42
2023-02-25T22:31:26.564Z,1.30
2023-02-25T22:33:53.327Z,1.27
2023-02-25T22:36:20.358Z,1.27
2023-02-25T22:38:48.334Z,1.50
2023-02-25T22:41:18.320Z,1.08
2023-02-25T22:43:45.236Z,1.30
2023-02-25T22:46:17.107Z,1.00
2023-02-25T22:48:45.523Z,1.60
2023-02-25T22:51:13.176Z,1.40
2023-02-25T22:53:41.064Z,1.52
2023-02-25T22:56:09.833Z,1.55
2023-02-25T22:58:40.327Z,1.30
2023-02-25T23:01:11.991Z,1.33
2023-02-25T23:03:38.652Z,1.60
2023-02-25T23:06:06.666Z,1.50
2023-02-25T23:08:33.982Z,1.55
2023-02-25T23:11:21.265Z,1.67
2023-02-25T23:13:51.194Z,1.45
2023-02-25T23:16:23.589Z,1.52
2023-02-25T23:18:51.436Z,1.40
2023-02-25T23:21:20.040Z,1.48
2023-02-25T23:23:51.936Z,3.22
2023-02-25T23:29:00.306Z,1.60
2023-02-25T23:31:30.296Z,1.60
2023-02-25T23:33:59.562Z,1.40
2023-02-25T23:36:27.712Z,1.50
2023-02-25T23:39:00.454Z,1.52
2023-02-25T23:41:28.967Z,1.92
2023-02-25T23:43:58.187Z,1.35
2023-02-25T23:46:26.445Z,1.20
2023-02-25T23:48:57.983Z,1.55
2023-02-25T23:51:25.766Z,1.48
2023-02-25T23:53:53.656Z,1.67
2023-02-25T23:56:21.305Z,1.48
2023-02-25T23:58:53.726Z,1.40
